Time;durP1;ratioP1;P1;durP2;ratioP2;P2;SDS_P1;SDS_P2;PMS_P1;PMS_P2;Temp;Humidity;BMP_temperature;BMP_pressure;BME280_temperature;BME280_humidity;BME280_pressure;Samples;Min_cycle;Max_cycle;Signal;HPM_P1;HPM_P2
2021/06/09 00:00:59;;;;;;;3.30;3.10;;;17.30;99.90;;;;;;5000193;28;20656;-64
2021/06/09 00:03:24;;;;;;;3.60;3.30;;;17.30;99.90;;;;;;4983891;28;20225;-64
2021/06/09 00:05:52;;;;;;;3.53;3.33;;;17.30;99.90;;;;;;4994092;28;20671;-64
2021/06/09 00:08:19;;;;;;;3.40;3.10;;;17.20;99.90;;;;;;5003971;28;20213;-65
2021/06/09 00:10:47;;;;;;;3.67;3.37;;;17.20;99.90;;;;;;4991616;28;20656;-64
2021/06/09 00:13:14;;;;;;;3.10;2.90;;;17.10;99.90;;;;;;4997551;28;20723;-64
2021/06/09 00:15:40;;;;;;;3.33;3.13;;;17.10;99.90;;;;;;4992250;28;20760;-64
2021/06/09 00:18:05;;;;;;;3.27;3.07;;;17.00;99.90;;;;;;4974210;28;20751;-64
2021/06/09 00:20:31;;;;;;;3.70;3.43;;;17.00;99.90;;;;;;4974749;28;20220;-63
2021/06/09 00:22:56;;;;;;;3.97;3.67;;;17.00;99.90;;;;;;4989211;28;20189;-63
2021/06/09 00:25:22;;;;;;;3.40;3.10;;;17.00;99.90;;;;;;4978146;28;20340;-64
2021/06/09 00:27:51;;;;;;;4.40;3.47;;;17.00;99.90;;;;;;4987305;28;20292;-65
2021/06/09 00:32:45;;;;;;;3.20;3.00;;;16.90;99.90;;;;;;4998336;28;20674;-64
2021/06/09 00:35:11;;;;;;;3.47;3.27;;;16.80;99.90;;;;;;5003904;28;20615;-64
2021/06/09 00:37:37;;;;;;;3.80;3.50;;;16.80;99.90;;;;;;5003553;28;20280;-64
2021/06/09 00:40:10;;;;;;;3.60;3.30;;;16.80;99.90;;;;;;4991819;28;20664;-63
2021/06/09 00:42:36;;;;;;;3.83;3.53;;;16.70;99.90;;;;;;4981164;28;21158;-65
2021/06/09 00:45:07;;;;;;;3.60;3.30;;;16.70;99.90;;;;;;4985372;28;20665;-66
2021/06/09 00:47:33;;;;;;;3.30;3.10;;;16.70;99.90;;;;;;4962729;28;21351;-65
2021/06/09 00:49:59;;;;;;;3.37;3.17;;;16.60;99.90;;;;;;4983690;28;20641;-66
2021/06/09 00:52:26;;;;;;;3.73;3.53;;;16.60;99.90;;;;;;4978957;28;20772;-66
2021/06/09 00:54:53;;;;;;;3.93;3.63;;;16.60;99.90;;;;;;4982165;28;20240;-64
2021/06/09 00:57:21;;;;;;;3.60;3.30;;;16.50;99.90;;;;;;4984513;28;20690;-64
2021/06/09 00:59:47;;;;;;;3.90;3.70;;;16.50;99.90;;;;;;4980536;28;20791;-63
2021/06/09 01:02:13;;;;;;;3.70;3.43;;;16.50;99.90;;;;;;4983510;28;20710;-62
2021/06/09 01:04:39;;;;;;;3.90;3.50;;;16.40;99.90;;;;;;4983923;28;20744;-62
2021/06/09 01:07:05;;;;;;;3.83;3.53;;;16.40;99.90;;;;;;4980631;28;20632;-64
2021/06/09 01:09:31;;;;;;;3.90;3.60;;;16.40;99.90;;;;;;4984601;28;20647;-63
2021/06/09 01:11:58;;;;;;;3.80;3.50;;;16.40;99.90;;;;;;4981834;28;21096;-64
2021/06/09 01:14:25;;;;;;;3.20;3.00;;;16.40;99.90;;;;;;4982338;28;20704;-63
2021/06/09 01:16:51;;;;;;;4.00;3.70;;;16.30;99.90;;;;;;4983901;28;20649;-64
2021/06/09 01:19:19;;;;;;;3.90;3.60;;;16.30;99.90;;;;;;4976391;28;20664;-62
2021/06/09 01:21:45;;;;;;;3.70;3.40;;;16.30;99.90;;;;;;4968580;28;20655;-64
2021/06/09 01:24:13;;;;;;;4.10;3.80;;;16.20;99.90;;;;;;4984654;28;20740;-62
2021/06/09 01:26:40;;;;;;;3.73;3.43;;;16.20;99.90;;;;;;5003808;28;20612;-63
2021/06/09 01:29:07;;;;;;;3.97;3.57;;;16.30;99.90;;;;;;4986142;28;20679;-64
2021/06/09 01:31:33;;;;;;;3.80;3.60;;;16.20;99.90;;;;;;4987142;28;20635;-64
2021/06/09 01:34:04;;;;;;;3.70;3.43;;;16.20;99.90;;;;;;4988603;28;20632;-63
2021/06/09 01:36:30;;;;;;;3.77;3.57;;;16.10;99.90;;;;;;4988542;28;20629;-64
2021/06/09 01:38:56;;;;;;;3.77;3.47;;;16.10;99.90;;;;;;4983296;28;20724;-63
2021/06/09 01:41:23;;;;;;;3.80;3.50;;;16.10;99.90;;;;;;4981807;28;20742;-63
2021/06/09 01:43:50;;;;;;;4.27;3.90;;;16.00;99.90;;;;;;4982048;28;20264;-64
2021/06/09 01:46:18;;;;;;;4.37;3.97;;;16.00;99.90;;;;;;4985092;28;20661;-64
2021/06/09 01:48:44;;;;;;;3.90;3.60;;;16.00;99.90;;;;;;4981245;28;20614;-66
2021/06/09 01:51:10;;;;;;;4.20;3.90;;;16.00;99.90;;;;;;4986137;28;20633;-63
2021/06/09 01:53:35;;;;;;;3.90;3.60;;;16.00;99.90;;;;;;4964905;28;23275;-63
2021/06/09 01:56:01;;;;;;;3.50;3.30;;;16.00;99.90;;;;;;4986900;28;20190;-62
2021/06/09 01:58:27;;;;;;;3.90;3.60;;;15.90;99.90;;;;;;4981023;28;20774;-64
2021/06/09 02:00:56;;;;;;;3.73;3.53;;;15.90;99.90;;;;;;4980367;28;20328;-62
2021/06/09 02:03:22;;;;;;;3.93;3.63;;;15.90;99.90;;;;;;4986163;28;20225;-63
2021/06/09 02:05:48;;;;;;;3.90;3.60;;;15.90;99.90;;;;;;5082406;23;20624;-64
2021/06/09 02:08:15;;;;;;;3.90;3.63;;;15.80;99.90;;;;;;4974568;28;20531;-64
2021/06/09 02:10:42;;;;;;;4.50;4.10;;;15.80;99.90;;;;;;4966688;28;20252;-65
2021/06/09 02:13:12;;;;;;;4.10;3.80;;;15.80;99.90;;;;;;4982883;28;20862;-65
2021/06/09 02:15:38;;;;;;;4.00;3.70;;;15.70;99.90;;;;;;4985439;28;20620;-64
2021/06/09 02:18:15;;;;;;;4.60;3.87;;;15.70;99.90;;;;;;4987941;28;21104;-64
2021/06/09 02:20:43;;;;;;;3.77;3.57;;;15.70;99.90;;;;;;4983286;28;21195;-64
2021/06/09 02:23:17;;;;;;;3.80;3.50;;;15.70;99.90;;;;;;4982654;28;21232;-64
2021/06/09 02:25:51;;;;;;;3.93;3.63;;;15.70;99.90;;;;;;4987284;28;21239;-64
2021/06/09 02:28:19;;;;;;;4.50;4.10;;;15.70;99.90;;;;;;4984309;28;20981;-64
2021/06/09 02:30:48;;;;;;;4.60;4.20;;;15.70;99.90;;;;;;4984361;28;20628;-64
2021/06/09 02:33:15;;;;;;;4.30;4.00;;;15.70;99.90;;;;;;4979774;28;22639;-66
2021/06/09 02:35:43;;;;;;;4.50;4.20;;;15.60;99.90;;;;;;4966494;28;20639;-66
2021/06/09 02:38:10;;;;;;;4.17;3.87;;;15.60;99.90;;;;;;4988686;28;20683;-64
2021/06/09 02:40:38;;;;;;;4.63;4.23;;;15.50;99.90;;;;;;4990544;28;20659;-64
2021/06/09 02:43:04;;;;;;;3.80;3.57;;;15.60;99.90;;;;;;5009567;28;21183;-64
2021/06/09 02:45:31;;;;;;;4.33;3.97;;;15.50;99.90;;;;;;5009517;28;20687;-63
2021/06/09 02:48:10;;;;;;;4.57;4.27;;;15.50;99.90;;;;;;4988337;28;20726;-64
2021/06/09 02:50:37;;;;;;;4.17;3.87;;;15.50;99.90;;;;;;4996631;28;20739;-64
2021/06/09 02:53:29;;;;;;;5.77;4.70;;;15.50;99.90;;;;;;4998220;28;20632;-64
2021/06/09 02:56:25;;;;;;;4.23;3.93;;;15.50;99.90;;;;;;5003690;28;20656;-64
2021/06/09 02:59:12;;;;;;;5.10;4.60;;;15.50;99.90;;;;;;4998453;28;21483;-64
2021/06/09 03:02:11;;;;;;;5.03;4.50;;;15.40;99.90;;;;;;5000058;28;20659;-64
2021/06/09 03:04:49;;;;;;;5.33;4.93;;;15.40;99.90;;;;;;4945722;28;20648;-64
2021/06/09 03:07:50;;;;;;;5.03;4.37;;;15.30;99.90;;;;;;4994664;28;20659;-64
2021/06/09 03:10:27;;;;;;;4.90;4.50;;;15.30;99.90;;;;;;4991011;28;20659;-64
2021/06/09 03:13:08;;;;;;;4.63;4.33;;;15.30;99.90;;;;;;4997061;28;20628;-64
2021/06/09 03:15:46;;;;;;;5.37;4.97;;;15.30;99.90;;;;;;4958412;28;20636;-64
2021/06/09 03:18:26;;;;;;;5.00;4.60;;;15.30;99.90;;;;;;4973804;28;20775;-63
2021/06/09 03:21:12;;;;;;;5.53;5.03;;;15.30;99.90;;;;;;4997285;28;20666;-64
2021/06/09 03:24:03;;;;;;;5.33;4.80;;;15.30;99.90;;;;;;4993398;28;20640;-64
2021/06/09 03:26:48;;;;;;;4.97;4.57;;;15.30;99.90;;;;;;4994951;28;20643;-64
2021/06/09 03:29:46;;;;;;;5.37;4.87;;;15.20;99.90;;;;;;4997295;28;20612;-64
2021/06/09 03:32:24;;;;;;;4.63;4.23;;;15.30;99.90;;;;;;4994774;28;20679;-64
2021/06/09 03:35:07;;;;;;;4.77;4.37;;;15.30;99.90;;;;;;4986539;28;21011;-64
2021/06/09 03:37:38;;;;;;;4.20;3.90;;;15.20;99.90;;;;;;4988044;28;20623;-63
2021/06/09 03:40:09;;;;;;;4.67;4.10;;;15.20;99.90;;;;;;4976024;28;20858;-63
2021/06/09 03:42:38;;;;;;;5.00;3.90;;;15.30;99.90;;;;;;4994466;28;21505;-64
2021/06/09 03:45:06;;;;;;;4.70;4.40;;;15.30;99.90;;;;;;4991261;28;20678;-63
2021/06/09 03:47:32;;;;;;;4.83;4.43;;;15.30;99.90;;;;;;4991097;28;20703;-64
2021/06/09 03:50:00;;;;;;;4.67;4.30;;;15.30;99.90;;;;;;4995735;28;20705;-64
2021/06/09 03:52:26;;;;;;;4.87;4.47;;;15.30;99.90;;;;;;4991108;28;20612;-64
2021/06/09 03:54:56;;;;;;;4.87;4.57;;;15.30;99.90;;;;;;4995861;28;20648;-64
2021/06/09 03:57:24;;;;;;;4.63;4.30;;;15.30;99.90;;;;;;4996010;28;20723;-64
2021/06/09 03:59:50;;;;;;;4.30;4.00;;;15.30;99.90;;;;;;4998093;28;20651;-64
2021/06/09 04:02:17;;;;;;;5.17;4.77;;;15.40;99.90;;;;;;4998630;28;20705;-64
2021/06/09 04:04:43;;;;;;;4.30;4.00;;;15.40;99.90;;;;;;4999311;28;20697;-64
2021/06/09 04:07:10;;;;;;;4.83;4.53;;;15.40;99.90;;;;;;5001502;28;21046;-64
2021/06/09 04:09:38;;;;;;;4.70;4.40;;;15.50;99.90;;;;;;5000500;28;20837;-64
2021/06/09 04:12:05;;;;;;;4.30;3.90;;;15.50;99.90;;;;;;4993368;28;21217;-64
2021/06/09 04:14:39;;;;;;;4.13;3.83;;;15.50;99.90;;;;;;4982024;28;20735;-64
2021/06/09 04:17:06;;;;;;;5.10;4.70;;;15.60;99.90;;;;;;5003383;28;20622;-65
2021/06/09 04:19:39;;;;;;;4.30;4.00;;;15.60;99.90;;;;;;4990329;28;20660;-64
2021/06/09 04:22:05;;;;;;;5.20;4.80;;;15.60;99.90;;;;;;4999405;28;20824;-64
2021/06/09 04:24:33;;;;;;;5.03;4.63;;;15.70;99.90;;;;;;4976321;28;20658;-64
2021/06/09 04:27:01;;;;;;;4.70;4.37;;;15.70;99.90;;;;;;4995739;28;20632;-64
2021/06/09 04:29:29;;;;;;;5.10;4.70;;;15.80;99.90;;;;;;4996217;28;20717;-65
2021/06/09 04:31:55;;;;;;;4.90;4.50;;;15.80;99.90;;;;;;4998383;28;21055;-64
2021/06/09 04:34:20;;;;;;;5.30;4.80;;;15.90;99.90;;;;;;4998390;28;20660;-64
2021/06/09 04:36:52;;;;;;;4.97;4.57;;;16.00;99.90;;;;;;4999617;28;20185;-64
2021/06/09 04:39:18;;;;;;;4.77;4.43;;;16.00;99.90;;;;;;4991349;28;20221;-64
2021/06/09 04:41:47;;;;;;;4.10;3.83;;;16.10;99.90;;;;;;4995607;28;20716;-64
2021/06/09 04:44:16;;;;;;;4.93;4.50;;;16.20;99.90;;;;;;4985474;28;20945;-64
2021/06/09 04:46:42;;;;;;;5.53;4.63;;;16.30;99.90;;;;;;4981663;28;20716;-64
2021/06/09 04:49:08;;;;;;;4.73;4.33;;;16.40;99.90;;;;;;4988645;28;22517;-64
2021/06/09 04:51:38;;;;;;;4.93;4.53;;;16.50;99.90;;;;;;4997167;28;20273;-64
2021/06/09 04:54:07;;;;;;;5.03;4.43;;;16.60;99.90;;;;;;4992078;28;20744;-64
2021/06/09 04:56:35;;;;;;;4.63;4.23;;;16.70;99.90;;;;;;4990128;28;20644;-64
2021/06/09 04:59:02;;;;;;;4.00;3.63;;;16.70;99.90;;;;;;4987223;28;20716;-65
2021/06/09 05:01:29;;;;;;;4.57;4.17;;;16.80;99.90;;;;;;4993365;28;21026;-64
2021/06/09 05:03:56;;;;;;;3.87;3.57;;;16.90;99.90;;;;;;4970605;28;20659;-64
2021/06/09 05:06:22;;;;;;;4.13;3.80;;;17.00;99.90;;;;;;4984828;28;20667;-64
2021/06/09 05:08:48;;;;;;;4.20;3.90;;;17.10;99.90;;;;;;4973521;28;20750;-65
2021/06/09 05:11:22;;;;;;;4.60;3.53;;;17.10;99.90;;;;;;4987622;28;20332;-64
2021/06/09 05:13:52;;;;;;;4.37;3.73;;;17.20;99.90;;;;;;4984869;28;20640;-64
2021/06/09 05:16:20;;;;;;;3.90;3.60;;;17.30;99.90;;;;;;4992579;28;20697;-65
2021/06/09 05:18:54;;;;;;;3.50;3.30;;;17.40;99.90;;;;;;4988042;28;20632;-65
2021/06/09 05:21:24;;;;;;;3.90;3.60;;;17.50;99.90;;;;;;4994402;28;20621;-65
2021/06/09 05:23:52;;;;;;;4.03;3.27;;;17.60;99.90;;;;;;4989864;28;20644;-65
2021/06/09 05:26:19;;;;;;;3.40;3.10;;;17.70;99.90;;;;;;4988166;28;20694;-65
2021/06/09 05:28:50;;;;;;;3.53;3.33;;;17.90;99.90;;;;;;4979911;28;20775;-65
2021/06/09 05:31:17;;;;;;;3.70;3.40;;;18.00;99.90;;;;;;4959596;28;20730;-65
2021/06/09 05:33:45;;;;;;;4.10;3.30;;;18.00;99.90;;;;;;4963536;28;20683;-65
2021/06/09 05:36:12;;;;;;;3.80;3.40;;;18.10;99.90;;;;;;4961417;28;20715;-66
2021/06/09 05:38:38;;;;;;;3.37;3.13;;;18.20;99.90;;;;;;4974863;28;20635;-65
2021/06/09 05:41:04;;;;;;;5.07;3.20;;;18.30;99.90;;;;;;4991344;28;20759;-65
2021/06/09 05:43:30;;;;;;;4.30;3.10;;;18.40;99.90;;;;;;4979640;28;20651;-65
2021/06/09 05:45:56;;;;;;;5.70;3.03;;;18.50;99.90;;;;;;4960352;28;20699;-65
2021/06/09 05:48:22;;;;;;;3.50;3.20;;;18.60;99.90;;;;;;4987818;28;20205;-65
2021/06/09 05:50:54;;;;;;;4.10;3.10;;;18.60;99.90;;;;;;4981780;28;20652;-65
2021/06/09 05:53:22;;;;;;;3.07;2.87;;;18.80;99.90;;;;;;4991601;28;20636;-66
2021/06/09 05:55:48;;;;;;;5.30;3.10;;;18.80;99.90;;;;;;4999101;28;20720;-65
2021/06/09 05:58:19;;;;;;;5.13;3.00;;;18.90;99.90;;;;;;4996736;28;20716;-65
2021/06/09 06:00:49;;;;;;;3.97;3.30;;;19.00;99.90;;;;;;4980377;28;20700;-66
2021/06/09 06:03:15;;;;;;;3.40;3.10;;;19.10;99.90;;;;;;4982937;28;20660;-64
2021/06/09 06:05:42;;;;;;;3.80;3.30;;;19.20;99.90;;;;;;4974737;28;20674;-64
2021/06/09 06:08:08;;;;;;;5.57;3.33;;;19.20;99.90;;;;;;4958150;28;20703;-64
2021/06/09 06:10:36;;;;;;;7.30;3.63;;;19.30;99.90;;;;;;4992676;28;20660;-64
2021/06/09 06:13:05;;;;;;;3.57;2.73;;;19.40;99.90;;;;;;4976017;28;20194;-64
2021/06/09 06:15:31;;;;;;;4.53;3.10;;;19.50;99.90;;;;;;4986181;28;20634;-64
2021/06/09 06:17:57;;;;;;;7.87;3.57;;;19.50;99.90;;;;;;4989138;28;20616;-64
2021/06/09 06:20:24;;;;;;;7.23;3.60;;;19.60;99.90;;;;;;4987839;28;20656;-63
2021/06/09 06:22:55;;;;;;;5.17;3.50;;;19.60;99.90;;;;;;4985059;28;20213;-65
2021/06/09 06:25:24;;;;;;;4.40;3.10;;;19.70;99.90;;;;;;4993467;28;20659;-64
2021/06/09 06:27:52;;;;;;;5.70;3.27;;;19.80;99.90;;;;;;4988938;28;20621;-64
2021/06/09 06:35:26;;;;;;;5.57;3.80;;;20.10;99.90;;;;;;4978986;28;20731;-66
2021/06/09 06:37:54;;;;;;;3.97;3.17;;;20.10;99.90;;;;;;4980700;28;24135;-66
2021/06/09 06:40:23;;;;;;;5.20;3.00;;;20.20;99.90;;;;;;4989533;28;20712;-66
2021/06/09 06:42:58;;;;;;;2.90;2.60;;;20.30;99.90;;;;;;4974102;28;20620;-64
2021/06/09 06:45:25;;;;;;;3.10;2.60;;;20.40;99.90;;;;;;4978887;28;20814;-64
2021/06/09 06:47:54;;;;;;;3.50;2.83;;;20.40;99.90;;;;;;4971715;28;20670;-62
2021/06/09 06:50:22;;;;;;;5.00;2.63;;;20.50;99.90;;;;;;4968066;28;20652;-64
2021/06/09 06:52:49;;;;;;;3.03;2.47;;;20.60;99.90;;;;;;4968685;28;20614;-63
2021/06/09 06:55:19;;;;;;;3.33;2.70;;;20.60;99.90;;;;;;4981991;28;20624;-64
2021/06/09 06:57:46;;;;;;;3.37;2.70;;;20.70;99.90;;;;;;4974382;28;20976;-63
2021/06/09 07:00:18;;;;;;;4.63;2.90;;;20.80;99.90;;;;;;4985474;28;21129;-65
2021/06/09 07:02:49;;;;;;;4.00;2.60;;;20.90;99.90;;;;;;4982589;28;21310;-65
2021/06/09 07:05:18;;;;;;;2.70;2.50;;;20.90;99.90;;;;;;4984709;28;20687;-63
2021/06/09 07:07:46;;;;;;;2.70;2.20;;;21.00;99.90;;;;;;4969401;28;20620;-62
2021/06/09 07:10:15;;;;;;;3.37;2.63;;;21.10;99.90;;;;;;4977954;28;20679;-65
2021/06/09 07:12:45;;;;;;;2.40;2.20;;;21.00;99.90;;;;;;4964865;28;20981;-64
2021/06/09 07:15:12;;;;;;;3.50;2.27;;;21.10;99.90;;;;;;4972415;28;20653;-65
2021/06/09 07:17:41;;;;;;;2.30;2.10;;;21.10;99.90;;;;;;4977688;28;23298;-64
2021/06/09 07:20:10;;;;;;;2.63;2.43;;;21.20;99.90;;;;;;4986966;28;20651;-65
2021/06/09 07:22:37;;;;;;;2.70;2.50;;;21.30;99.90;;;;;;4980402;28;20659;-63
2021/06/09 07:25:05;;;;;;;4.10;2.40;;;21.30;99.90;;;;;;4965418;28;20648;-65
2021/06/09 07:27:36;;;;;;;5.20;2.20;;;21.40;99.90;;;;;;4982107;28;20623;-64
2021/06/09 07:30:11;;;;;;;2.63;2.10;;;21.40;99.90;;;;;;4984085;28;21200;-64
2021/06/09 07:32:42;;;;;;;4.10;2.40;;;21.50;99.90;;;;;;4982454;28;21856;-65
2021/06/09 07:35:09;;;;;;;2.80;2.60;;;21.50;99.90;;;;;;4971803;28;20648;-65
2021/06/09 07:37:47;;;;;;;2.70;2.10;;;21.50;99.90;;;;;;4985490;28;20743;-65
2021/06/09 07:40:19;;;;;;;2.70;2.40;;;21.60;99.90;;;;;;4983033;28;20675;-65
2021/06/09 07:42:52;;;;;;;3.10;2.10;;;21.70;99.90;;;;;;4983734;28;20747;-65
2021/06/09 07:45:21;;;;;;;2.67;2.30;;;21.80;99.90;;;;;;4978647;28;20719;-65
2021/06/09 07:47:51;;;;;;;2.50;2.30;;;21.70;99.90;;;;;;4984866;28;20623;-65
2021/06/09 07:50:40;;;;;;;2.13;1.87;;;21.90;99.90;;;;;;4979763;28;20655;-65
2021/06/09 07:53:10;;;;;;;2.47;2.27;;;22.00;99.90;;;;;;4975918;28;21258;-65
2021/06/09 07:55:42;;;;;;;2.23;2.03;;;22.10;99.90;;;;;;4986351;28;20655;-66
2021/06/09 07:58:08;;;;;;;2.10;1.90;;;22.10;99.90;;;;;;4974728;28;21648;-63
2021/06/09 08:00:35;;;;;;;1.93;1.83;;;22.10;99.90;;;;;;4985828;28;20758;-66
2021/06/09 08:03:04;;;;;;;2.60;2.20;;;22.30;99.90;;;;;;4965763;28;21026;-64
2021/06/09 08:05:31;;;;;;;2.70;2.00;;;22.40;99.90;;;;;;4982610;28;20640;-64
2021/06/09 08:07:57;;;;;;;5.10;2.20;;;22.50;99.90;;;;;;4976492;28;20617;-66
2021/06/09 08:10:23;;;;;;;2.60;2.37;;;22.60;99.90;;;;;;4980383;28;20651;-62
2021/06/09 08:12:50;;;;;;;2.33;2.13;;;22.70;99.90;;;;;;4989236;28;20609;-62
2021/06/09 08:15:19;;;;;;;2.13;1.97;;;22.70;99.90;;;;;;4992478;28;20190;-64
2021/06/09 08:17:45;;;;;;;3.70;2.20;;;22.80;99.90;;;;;;4982096;28;20632;-65
2021/06/09 08:20:17;;;;;;;4.43;1.90;;;22.90;99.90;;;;;;4969167;28;20659;-64
2021/06/09 08:22:44;;;;;;;2.50;2.20;;;22.90;99.90;;;;;;4961959;28;20648;-62
2021/06/09 08:25:15;;;;;;;2.43;2.23;;;22.90;99.90;;;;;;4985471;28;20648;-66
2021/06/09 08:27:41;;;;;;;2.20;2.10;;;22.90;99.90;;;;;;4965881;28;20630;-64
2021/06/09 08:30:11;;;;;;;3.17;2.13;;;23.00;99.90;;;;;;4984498;28;20755;-66
2021/06/09 08:32:36;;;;;;;3.23;2.13;;;23.00;99.90;;;;;;4979791;28;21242;-65
2021/06/09 08:35:06;;;;;;;2.20;2.10;;;23.00;99.90;;;;;;4977924;28;20661;-64
2021/06/09 08:37:32;;;;;;;3.10;2.47;;;23.10;99.90;;;;;;4972212;28;20193;-63
2021/06/09 08:39:58;;;;;;;7.43;2.40;;;23.10;99.90;;;;;;4991615;28;20671;-65
2021/06/09 08:42:33;;;;;;;3.20;2.37;;;23.20;99.90;;;;;;4989473;28;21500;-64
2021/06/09 08:44:59;;;;;;;3.03;2.30;;;23.40;99.90;;;;;;4988420;28;20701;-65
2021/06/09 08:47:25;;;;;;;3.33;2.20;;;23.40;99.90;;;;;;4985042;28;20640;-64
2021/06/09 08:49:52;;;;;;;2.90;2.67;;;23.50;99.90;;;;;;4975671;28;20793;-65
2021/06/09 08:52:18;;;;;;;2.17;2.00;;;23.60;99.90;;;;;;4987067;28;20639;-65
2021/06/09 08:54:47;;;;;;;3.60;2.23;;;23.80;99.90;;;;;;4991744;28;22475;-64
2021/06/09 08:57:14;;;;;;;2.40;2.20;;;23.90;99.90;;;;;;4971170;28;20596;-64
2021/06/09 08:59:42;;;;;;;3.00;2.47;;;23.90;99.90;;;;;;4973547;28;20662;-65
2021/06/09 09:02:09;;;;;;;3.47;2.50;;;24.00;99.90;;;;;;4975764;28;21164;-64
2021/06/09 09:04:39;;;;;;;3.83;2.50;;;24.00;99.90;;;;;;4986804;28;20652;-65
2021/06/09 09:07:08;;;;;;;2.97;2.20;;;24.00;99.90;;;;;;4985637;28;20617;-65
2021/06/09 09:09:36;;;;;;;2.37;2.17;;;24.10;99.90;;;;;;4978640;28;21262;-65
2021/06/09 09:12:02;;;;;;;5.63;2.40;;;24.20;99.90;;;;;;4995190;28;20628;-65
2021/06/09 09:14:28;;;;;;;3.80;2.30;;;24.30;99.90;;;;;;4988020;28;20648;-65
2021/06/09 09:17:14;;;;;;;3.03;2.20;;;24.40;99.90;;;;;;4992288;28;20711;-65
2021/06/09 09:19:44;;;;;;;2.37;2.23;;;24.50;99.90;;;;;;4970199;28;20355;-65
2021/06/09 09:22:35;;;;;;;3.30;2.97;;;24.60;99.90;;;;;;4995345;28;20620;-64
2021/06/09 09:25:15;;;;;;;2.30;2.13;;;24.70;99.90;;;;;;4992416;28;20659;-65
2021/06/09 09:27:40;;;;;;;1.97;1.87;;;24.70;99.90;;;;;;4994107;28;20621;-65
2021/06/09 09:30:08;;;;;;;3.90;2.20;;;24.80;99.90;;;;;;4991289;28;20658;-65
2021/06/09 09:32:34;;;;;;;2.90;2.23;;;24.90;99.90;;;;;;4985835;28;20190;-64
2021/06/09 09:35:08;;;;;;;2.00;1.90;;;24.90;99.90;;;;;;4967886;28;21232;-65
2021/06/09 09:37:33;;;;;;;2.00;1.90;;;24.90;99.90;;;;;;4973353;28;20716;-65
2021/06/09 09:40:17;;;;;;;2.10;2.00;;;24.90;99.90;;;;;;4986122;28;21220;-65
2021/06/09 09:42:50;;;;;;;4.23;2.53;;;25.10;99.90;;;;;;4970163;28;20211;-64
2021/06/09 09:45:22;;;;;;;2.67;2.17;;;25.10;99.90;;;;;;4985473;28;20678;-64
2021/06/09 09:48:26;;;;;;;2.20;2.10;;;25.10;99.90;;;;;;4983848;28;20716;-64
2021/06/09 09:50:52;;;;;;;1.77;1.67;;;25.20;99.90;;;;;;4893179;29;20703;-65
2021/06/09 09:53:30;;;;;;;2.10;2.00;;;25.20;99.90;;;;;;4913011;29;20644;-65
2021/06/09 09:56:15;;;;;;;2.17;1.97;;;25.20;99.90;;;;;;4909601;29;20208;-66
2021/06/09 09:59:04;;;;;;;2.33;2.20;;;25.20;99.90;;;;;;4886864;29;20682;-64
2021/06/09 10:01:38;;;;;;;3.27;2.80;;;25.20;99.90;;;;;;4907095;29;20682;-66
2021/06/09 10:04:06;;;;;;;2.63;2.43;;;25.30;99.90;;;;;;4909594;29;20702;-64
2021/06/09 10:06:39;;;;;;;3.00;2.80;;;25.40;99.90;;;;;;4914293;29;20756;-65
2021/06/09 10:09:11;;;;;;;2.70;2.43;;;25.40;99.90;;;;;;4907013;29;20673;-65
2021/06/09 10:11:43;;;;;;;3.60;3.03;;;25.50;99.90;;;;;;4896002;29;20639;-65
2021/06/09 10:14:19;;;;;;;3.23;2.93;;;25.60;99.90;;;;;;4904875;29;20649;-65
2021/06/09 10:16:48;;;;;;;3.47;3.13;;;25.60;99.90;;;;;;4905617;29;20632;-65
2021/06/09 10:19:16;;;;;;;3.60;3.40;;;25.70;99.90;;;;;;4913221;29;22944;-65
2021/06/09 10:21:48;;;;;;;4.20;3.90;;;25.80;99.90;;;;;;4942032;28;20633;-65
2021/06/09 10:24:16;;;;;;;4.00;3.70;;;25.70;99.90;;;;;;4995702;28;20632;-65
2021/06/09 10:26:51;;;;;;;3.60;3.40;;;25.70;99.90;;;;;;4992692;28;20783;-65
2021/06/09 10:29:19;;;;;;;4.40;4.10;;;25.80;99.90;;;;;;4979275;28;21227;-64
2021/06/09 10:31:57;;;;;;;3.50;3.20;;;25.80;99.90;;;;;;4983138;28;20701;-64
2021/06/09 10:34:26;;;;;;;3.60;3.27;;;25.90;99.90;;;;;;4974657;28;20764;-64
2021/06/09 10:36:55;;;;;;;3.50;3.30;;;26.00;99.90;;;;;;4996316;28;21192;-64
2021/06/09 10:39:26;;;;;;;4.10;3.60;;;25.80;99.90;;;;;;4992405;28;20675;-65
2021/06/09 10:41:56;;;;;;;4.10;3.90;;;25.80;99.90;;;;;;4978199;28;20636;-65
2021/06/09 10:44:25;;;;;;;4.83;4.43;;;25.80;99.90;;;;;;4972844;28;21223;-65
2021/06/09 10:46:54;;;;;;;5.00;4.70;;;25.80;99.90;;;;;;4993960;28;21474;-64
2021/06/09 10:49:22;;;;;;;5.77;5.37;;;26.00;99.90;;;;;;4975240;28;21199;-64
2021/06/09 10:51:51;;;;;;;5.00;4.60;;;26.00;99.90;;;;;;4985006;28;20979;-64
2021/06/09 10:54:20;;;;;;;4.13;3.83;;;26.10;99.90;;;;;;4976750;28;20640;-64
2021/06/09 10:56:48;;;;;;;4.90;4.50;;;26.20;99.90;;;;;;4986250;28;21023;-63
2021/06/09 10:59:28;;;;;;;5.07;4.57;;;26.20;99.90;;;;;;4991484;28;20640;-63
2021/06/09 11:02:01;;;;;;;4.63;4.23;;;26.20;99.90;;;;;;4990665;28;20633;-64
2021/06/09 11:04:31;;;;;;;4.50;4.20;;;26.30;99.90;;;;;;4971329;28;20671;-65
2021/06/09 11:06:57;;;;;;;5.03;4.70;;;26.40;99.90;;;;;;4994801;28;21183;-65
2021/06/09 11:09:28;;;;;;;4.53;4.23;;;26.40;99.90;;;;;;4992598;28;20651;-65
2021/06/09 11:12:12;;;;;;;4.43;4.13;;;26.50;99.90;;;;;;4989078;28;20232;-65
2021/06/09 11:14:59;;;;;;;4.33;4.03;;;26.60;99.90;;;;;;4979572;28;20694;-65
2021/06/09 11:17:47;;;;;;;4.63;4.27;;;26.70;99.90;;;;;;4985730;28;20608;-64
2021/06/09 11:20:22;;;;;;;4.60;4.30;;;26.70;99.90;;;;;;4981698;28;20809;-65
2021/06/09 11:22:55;;;;;;;4.37;4.07;;;26.70;99.90;;;;;;4988237;28;20623;-65
2021/06/09 11:25:37;;;;;;;4.37;4.07;;;26.70;99.90;;;;;;4989490;28;20641;-65
2021/06/09 11:28:08;;;;;;;5.93;5.33;;;26.70;99.90;;;;;;4993232;28;20633;-65
2021/06/09 11:30:34;;;;;;;5.07;4.77;;;26.80;99.90;;;;;;4990299;28;20636;-64
2021/06/09 11:33:01;;;;;;;4.77;4.47;;;26.90;99.90;;;;;;4993880;28;20619;-65
2021/06/09 11:35:50;;;;;;;5.03;4.60;;;27.00;99.90;;;;;;4994995;28;20205;-65
2021/06/09 11:38:22;;;;;;;4.57;4.17;;;27.10;99.90;;;;;;4973391;28;20628;-65
2021/06/09 11:41:08;;;;;;;4.50;4.23;;;27.30;99.90;;;;;;4988976;28;20651;-65
2021/06/09 11:43:37;;;;;;;4.43;4.17;;;27.30;99.90;;;;;;4991633;28;21258;-65
2021/06/09 11:46:06;;;;;;;4.53;4.23;;;27.40;99.90;;;;;;4991272;28;20656;-64
2021/06/09 11:48:33;;;;;;;4.70;4.40;;;27.50;99.90;;;;;;4976262;28;20695;-65
2021/06/09 11:51:17;;;;;;;4.90;4.27;;;27.40;99.90;;;;;;4987361;28;20648;-66
2021/06/09 11:53:45;;;;;;;4.63;4.37;;;27.40;99.90;;;;;;4974650;28;20667;-65
2021/06/09 11:56:13;;;;;;;5.37;4.97;;;27.40;99.90;;;;;;4993733;28;21164;-65
2021/06/09 11:58:39;;;;;;;5.40;4.80;;;27.50;99.90;;;;;;4994266;28;20723;-66
2021/06/09 12:01:09;;;;;;;4.97;4.50;;;27.60;99.90;;;;;;4994222;28;20642;-65
2021/06/09 12:03:37;;;;;;;5.40;5.00;;;27.70;99.90;;;;;;4995079;28;20747;-63
2021/06/09 12:06:22;;;;;;;5.50;5.10;;;27.80;99.90;;;;;;4984684;28;20670;-63
2021/06/09 12:08:52;;;;;;;5.40;5.00;;;28.00;99.90;;;;;;4997759;28;21440;-63
2021/06/09 12:11:18;;;;;;;5.30;4.90;;;28.10;99.90;;;;;;4993398;28;20644;-66
2021/06/09 12:13:45;;;;;;;5.53;5.13;;;28.20;99.90;;;;;;4994777;28;20643;-63
2021/06/09 12:16:17;;;;;;;5.40;4.90;;;28.40;99.90;;;;;;4990731;28;20625;-64
2021/06/09 12:18:44;;;;;;;5.00;4.57;;;28.50;99.90;;;;;;4997282;28;20624;-66
2021/06/09 12:21:13;;;;;;;5.40;5.00;;;28.60;99.90;;;;;;4993063;28;20660;-64
2021/06/09 12:23:57;;;;;;;5.93;5.43;;;28.70;99.90;;;;;;4968316;28;20623;-64
2021/06/09 12:26:23;;;;;;;4.20;4.00;;;28.80;99.90;;;;;;4996287;28;20648;-65
2021/06/09 12:29:06;;;;;;;5.20;4.67;;;28.80;99.90;;;;;;4997349;28;20605;-65
2021/06/09 12:31:38;;;;;;;5.20;4.80;;;28.80;99.90;;;;;;5065100;23;20282;-64
2021/06/09 12:34:05;;;;;;;4.53;4.23;;;28.80;99.90;;;;;;4999808;28;20636;-64
2021/06/09 12:36:31;;;;;;;4.10;3.90;;;28.90;99.90;;;;;;4998466;28;20620;-63
2021/06/09 12:38:57;;;;;;;4.57;4.27;;;29.00;99.90;;;;;;4991156;28;20739;-64
2021/06/09 12:41:30;;;;;;;4.80;4.50;;;29.00;99.90;;;;;;4996115;28;20642;-64
2021/06/09 12:43:59;;;;;;;4.63;4.37;;;29.10;99.90;;;;;;4997774;28;20248;-64
2021/06/09 12:46:25;;;;;;;4.40;4.10;;;29.10;99.90;;;;;;4996375;28;20668;-64
2021/06/09 12:48:51;;;;;;;3.90;3.60;;;29.10;99.90;;;;;;4981101;28;20605;-64
2021/06/09 12:51:17;;;;;;;4.27;4.07;;;29.10;99.90;;;;;;4992499;28;20588;-64
2021/06/09 12:53:43;;;;;;;4.50;4.20;;;29.10;99.90;;;;;;4994337;28;20221;-64
2021/06/09 12:56:09;;;;;;;4.70;4.40;;;29.00;99.90;;;;;;4997227;28;21241;-65
2021/06/09 12:58:37;;;;;;;4.10;3.90;;;28.80;99.90;;;;;;4995543;28;20296;-63
2021/06/09 13:01:08;;;;;;;3.60;3.40;;;28.80;99.90;;;;;;4992599;28;20674;-69
2021/06/09 13:03:43;;;;;;;4.17;3.93;;;28.80;99.90;;;;;;4993422;28;21237;-64
2021/06/09 13:06:17;;;;;;;4.43;4.03;;;28.90;99.90;;;;;;5011771;28;20727;-63
2021/06/09 13:08:45;;;;;;;3.70;3.50;;;29.10;99.90;;;;;;4990874;28;20640;-64
2021/06/09 13:11:33;;;;;;;4.40;4.20;;;29.20;99.90;;;;;;5007532;28;21277;-65